^^
Datos históricos de la estación: Murcia-Puente Tocinos
Diario Informe para Julio 17, 2019 Unidades:  Métrico    Ingés   Ambas
Diario Semanal Mensual Anual
  Máxima: Mínima: Promedio:
Temperatura: 28.5 °C 21.5 °C 24.1 °C
Punto de rocio: 21.6 °C 20.1 °C 20.8 °C
Humedad: 93% 62.1% 83%
Velocidad viento: 14.8km/h 0km/h 5.5km/h
Racha viento: 32.2km/h - -
Viento- - SE
Presión: 1016.4 hPa 1012.3 hPa -
Precipitación: 0.0 mm    
 
 
Tabla de datos para Julio 17, 2019
Hora Temperatura Punto de rocio Presión Viento Velocidad viento Racha viento Humedad Intensidad lluvia(por hora) Nubes
00:04 23.2 °C 21.3 °C 1016.3 hPa NE 5.8 km/h 9.5 km/h 89% 0.0 mm
00:09 23.2 °C 21.3 °C 1016.3 hPa NNE 5.7 km/h 9.7 km/h 89% 0.0 mm
00:14 23.2 °C 21.3 °C 1016.3 hPa NE 5 km/h 8 km/h 89% 0.0 mm
00:19 23.2 °C 21.4 °C 1016.4 hPa NNE 4.8 km/h 7.4 km/h 89.8% 0.0 mm
00:24 23.1 °C 21.4 °C 1016.4 hPa North 3.2 km/h 8 km/h 90% 0.0 mm
00:29 23.1 °C 21.4 °C 1016.4 hPa North 3.2 km/h 5.6 km/h 90% 0.0 mm
00:34 23.1 °C 21.4 °C 1016.4 hPa NNE 2.9 km/h 5 km/h 90% 0.0 mm
00:39 23.1 °C 21.4 °C 1016.4 hPa NE 2.9 km/h 7.4 km/h 90% 0.0 mm
00:44 23.1 °C 21.5 °C 1016.4 hPa NE 2.9 km/h 8 km/h 90.9% 0.0 mm
00:49 23 °C 21.5 °C 1016.4 hPa NNE 3 km/h 8.4 km/h 91% 0.0 mm
00:54 22.9 °C 21.4 °C 1016.4 hPa NE 4.7 km/h 9.5 km/h 91% 0.0 mm
00:59 22.8 °C 21.3 °C 1016.3 hPa NE 4.7 km/h 9.7 km/h 91% 0.0 mm
01:04 22.8 °C 21.3 °C 1016.3 hPa NE 5 km/h 8 km/h 91% 0.0 mm
01:09 22.8 °C 21.2 °C 1016.3 hPa NE 4.8 km/h 6.4 km/h 91% 0.0 mm
01:14 22.7 °C 21.3 °C 1016.2 hPa ENE 3.2 km/h 6.4 km/h 91.7% 0.0 mm
01:19 22.7 °C 21.3 °C 1016.3 hPa ENE 3.1 km/h 4.8 km/h 92% 0.0 mm
01:24 22.7 °C 21.2 °C 1016.3 hPa ENE 2.2 km/h 5.8 km/h 91% 0.0 mm
01:29 22.6 °C 21.1 °C 1016.3 hPa ENE 2.3 km/h 6.4 km/h 91% 0.0 mm
01:34 22.6 °C 21.1 °C 1016.3 hPa NNE 2.9 km/h 5.6 km/h 91.1% 0.0 mm
01:39 22.6 °C 21.2 °C 1016.2 hPa NNE 2.7 km/h 4.8 km/h 91.8% 0.0 mm
01:44 22.5 °C 21.1 °C 1016.1 hPa Calm     91.9% 0.0 mm
01:49 22.5 °C 21.1 °C 1016.1 hPa Calm     92% 0.0 mm
01:54 22.4 °C 21.1 °C 1016.1 hPa Calm     92% 0.0 mm
01:59 22.4 °C 21.1 °C 1016.1 hPa Calm     92% 0.0 mm
02:04 22.4 °C 21.1 °C 1016.2 hPa Calm     92% 0.0 mm
02:09 22.4 °C 21.1 °C 1016.2 hPa Calm     92% 0.0 mm
02:14 22.4 °C 21.1 °C 1016.2 hPa Calm   3.9 km/h 92% 0.0 mm
02:19 22.4 °C 21.1 °C 1016.2 hPa Calm   3.2 km/h 92% 0.0 mm
02:24 22.4 °C 21.1 °C 1016.1 hPa Calm     92% 0.0 mm
02:29 22.4 °C 21.1 °C 1016.1 hPa Calm     92% 0.0 mm
02:34 22.4 °C 21.1 °C 1016.1 hPa Calm     92% 0.0 mm
02:39 22.4 °C 21 °C 1016.0 hPa Calm     92% 0.0 mm
02:44 22.3 °C 20.9 °C 1016.0 hPa Calm     92% 0.0 mm
02:49 22.3 °C 21 °C 1016.0 hPa SE 0.2 km/h 5.8 km/h 92.2% 0.0 mm
02:54 22.4 °C 21.1 °C 1016.0 hPa Sur 2.2 km/h 6.4 km/h 92.6% 0.0 mm
02:59 22.3 °C 21 °C 1015.9 hPa SSO 2.3 km/h 5.6 km/h 92% 0.0 mm
03:04 22.3 °C 21 °C 1015.9 hPa SSO 2.9 km/h 7.4 km/h 92.3% 0.0 mm
03:09 22.3 °C 21 °C 1015.9 hPa SSO 2.9 km/h 8 km/h 92% 0.0 mm
03:14 22.2 °C 20.8 °C 1015.8 hPa SSO 3.2 km/h 5.8 km/h 91.5% 0.0 mm
03:19 22.2 °C 20.7 °C 1015.8 hPa Sur 3.2 km/h 8 km/h 91% 0.0 mm
03:24 22.2 °C 20.7 °C 1015.7 hPa Sur 3.2 km/h 8 km/h 91% 0.0 mm
03:29 22.2 °C 20.7 °C 1015.6 hPa Sur 3.1 km/h 4.8 km/h 91% 0.0 mm
03:34 22.2 °C 20.7 °C 1015.6 hPa Sur 2.3 km/h 3.2 km/h 91% 0.0 mm
03:39 22.2 °C 20.7 °C 1015.5 hPa Sur 2.1 km/h 1.9 km/h 91% 0.0 mm
03:44 22.2 °C 20.7 °C 1015.5 hPa Calm   8.4 km/h 91% 0.0 mm
03:49 22.2 °C 20.5 °C 1015.7 hPa SE 0.3 km/h 8 km/h 90.2% 0.0 mm
03:54 22.2 °C 20.5 °C 1015.7 hPa SE 3.8 km/h 8 km/h 90% 0.0 mm
03:59 22.2 °C 20.5 °C 1015.7 hPa Sur 4 km/h 8 km/h 90% 0.0 mm
04:04 22.2 °C 20.5 °C 1015.8 hPa SSO 4.6 km/h 8.4 km/h 90% 0.0 mm
04:09 22.2 °C 20.5 °C 1015.8 hPa SSO 4.7 km/h 9.7 km/h 90% 0.0 mm
04:14 22.2 °C 20.5 °C 1015.8 hPa SSO 5 km/h 9.7 km/h 90% 0.0 mm
04:19 22.3 °C 20.6 °C 1015.8 hPa SSO 4.8 km/h 8 km/h 90% 0.0 mm
04:24 22.3 °C 20.6 °C 1015.7 hPa SO 3.2 km/h 8 km/h 90% 0.0 mm
04:29 22.4 °C 20.7 °C 1015.6 hPa SSE 3.2 km/h 7.4 km/h 90% 0.0 mm
04:34 22.4 °C 20.7 °C 1015.6 hPa SE 2.9 km/h 8 km/h 90% 0.0 mm
04:39 22.4 °C 20.7 °C 1015.5 hPa SE 2.8 km/h 6.4 km/h 90% 0.0 mm
04:44 22.4 °C 20.7 °C 1015.5 hPa SE 2.2 km/h   90% 0.0 mm
04:49 22.4 °C 20.7 °C 1015.5 hPa SE 2.1 km/h   90% 0.0 mm
04:54 22.4 °C 20.7 °C 1015.4 hPa Calm   7.4 km/h 90% 0.0 mm
04:59 22.4 °C 20.7 °C 1015.3 hPa SSE 0.6 km/h 8.4 km/h 90% 0.0 mm
05:04 22.3 °C 20.5 °C 1015.5 hPa SSE 4.6 km/h 11.1 km/h 89.3% 0.0 mm
05:09 22.2 °C 20.3 °C 1015.5 hPa SSE 4.8 km/h 11.3 km/h 89% 0.0 mm
05:14 22.1 °C 20.3 °C 1015.5 hPa SSE 6.9 km/h 11.3 km/h 89.1% 0.0 mm
05:19 22.1 °C 20.3 °C 1015.5 hPa SSE 6.9 km/h 10 km/h 90% 0.0 mm
05:24 22 °C 20.3 °C 1015.4 hPa Sur 6.5 km/h 10 km/h 90% 0.0 mm
05:29 22 °C 20.3 °C 1015.3 hPa SSO 6.5 km/h 11.1 km/h 90% 0.0 mm
05:34 22 °C 20.3 °C 1015.4 hPa Sur 6.5 km/h 11.3 km/h 90% 0.0 mm
05:39 22 °C 20.3 °C 1015.4 hPa SSO 6.3 km/h 9.7 km/h 90% 0.0 mm
05:44 22.1 °C 20.4 °C 1015.4 hPa SSO 5 km/h 8.4 km/h 90% 0.0 mm
05:49 22.1 °C 20.4 °C 1015.5 hPa SO 4.9 km/h 8 km/h 90% 0.0 mm
05:54 22.1 °C 20.4 °C 1015.5 hPa OSO 3.9 km/h 8 km/h 90% 0.0 mm
05:59 22 °C 20.3 °C 1015.5 hPa OSO 4 km/h 8 km/h 90% 0.0 mm
06:04 22 °C 20.3 °C 1015.5 hPa Oeste 4.6 km/h 8 km/h 90% 0.0 mm
06:09 21.9 °C 20.2 °C 1015.4 hPa Oeste 4.6 km/h 7.4 km/h 90% 0.0 mm
06:14 21.8 °C 20.1 °C 1015.4 hPa Oeste 3.9 km/h 8 km/h 90% 0.0 mm
06:19 21.8 °C 20.2 °C 1015.4 hPa Oeste 3.8 km/h 5.6 km/h 90.5% 0.0 mm
06:24 21.8 °C 20.3 °C 1015.4 hPa Oeste 3.2 km/h 4.8 km/h 91% 0.0 mm
06:29 21.7 °C 20.2 °C 1015.4 hPa Oeste 3.1 km/h 6.9 km/h 91% 0.0 mm
06:34 21.8 °C 20.3 °C 1015.6 hPa SSO 2.3 km/h 8 km/h 91% 0.0 mm
06:39 21.8 °C 20.3 °C 1015.6 hPa SO 2.4 km/h 8 km/h 91% 0.0 mm
06:44 21.8 °C 20.3 °C 1015.6 hPa SSO 3.9 km/h 8 km/h 91% 0.0 mm
06:49 21.8 °C 20.3 °C 1015.7 hPa SSO 3.9 km/h 11.1 km/h 91% 0.0 mm
06:54 21.8 °C 20.3 °C 1015.7 hPa SSO 4.7 km/h 11.3 km/h 91% 0.0 mm
06:59 21.8 °C 20.3 °C 1015.7 hPa SSO 4.9 km/h 10 km/h 91% 0.0 mm
07:04 21.8 °C 20.3 °C 1015.7 hPa SSO 6.4 km/h 9.7 km/h 91% 0.0 mm
07:09 21.8 °C 20.3 °C 1015.7 hPa SSO 6.4 km/h 11.1 km/h 91% 0.0 mm
07:14 21.8 °C 20.4 °C 1015.7 hPa SO 5.8 km/h 11.3 km/h 91.8% 0.0 mm
07:19 21.8 °C 20.5 °C 1015.7 hPa SO 5.7 km/h 11.1 km/h 92% 0.0 mm
07:24 21.9 °C 20.6 °C 1015.7 hPa OSO 5 km/h 11.3 km/h 92% 0.0 mm
07:29 21.9 °C 20.6 °C 1015.7 hPa OSO 5 km/h 8 km/h 92% 0.0 mm
07:34 21.9 °C 20.5 °C 1015.7 hPa Oeste 4.7 km/h 8 km/h 92.1% 0.0 mm
07:39 21.8 °C 20.6 °C 1015.6 hPa Oeste 4.7 km/h 9.3 km/h 92.9% 0.0 mm
07:44 21.8 °C 20.6 °C 1015.5 hPa OSO 4.7 km/h 9.7 km/h 93% 0.0 mm
07:49 21.8 °C 20.6 °C 1015.7 hPa SO 4.7 km/h 10 km/h 93% 0.0 mm
07:54 21.8 °C 20.6 °C 1015.7 hPa SSO 5 km/h 9.7 km/h 93% 0.0 mm
07:59 21.8 °C 20.6 °C 1015.7 hPa Sur 5 km/h 8 km/h 93% 0.0 mm
08:04 21.8 °C 20.6 °C 1015.7 hPa SSO 5 km/h 8.4 km/h 93% 0.0 mm
08:09 21.8 °C 20.6 °C 1015.6 hPa Sur 5 km/h 8 km/h 93% 0.0 mm
08:14 21.9 °C 20.7 °C 1015.6 hPa Sur 5 km/h 8 km/h 93% 0.0 mm
08:19 21.8 °C 20.6 °C 1015.6 hPa SE 5 km/h 8.4 km/h 93% 0.0 mm
08:24 21.7 °C 20.6 °C 1015.6 hPa SE 5 km/h 9.5 km/h 93% 0.0 mm
08:29 21.7 °C 20.4 °C 1015.6 hPa SSE 5.1 km/h 11.9 km/h 92.5% 0.0 mm
08:34 21.6 °C 20.2 °C 1015.6 hPa SSE 6.4 km/h 11.3 km/h 92% 0.0 mm
08:39 21.5 °C 20.2 °C 1015.5 hPa SSE 6.5 km/h 11.3 km/h 92.5% 0.0 mm
08:44 21.5 °C 20.3 °C 1015.4 hPa SSE 6.9 km/h 9.7 km/h 93% 0.0 mm
08:49 21.5 °C 20.3 °C 1015.4 hPa SE 6.8 km/h 9.7 km/h 93% 0.0 mm
08:54 21.6 °C 20.4 °C 1015.3 hPa SE 5 km/h 8 km/h 93% 0.0 mm
08:59 21.7 °C 20.5 °C 1015.3 hPa ESE 4.7 km/h 7.6 km/h 93% 0.0 mm
09:04 21.7 °C 20.5 °C 1015.3 hPa ESE 2.9 km/h 8.4 km/h 93% 0.0 mm
09:09 21.6 °C 20.4 °C 1015.1 hPa ESE 3.1 km/h 8 km/h 93% 0.0 mm
09:14 21.6 °C 20.4 °C 1014.9 hPa ESE 5 km/h 8 km/h 93% 0.0 mm
09:19 21.6 °C 20.4 °C 1015.0 hPa ESE 4.8 km/h 6.4 km/h 93% 0.0 mm
09:24 21.6 °C 20.5 °C 1015.0 hPa ESE 2.9 km/h 7.4 km/h 93% 0.0 mm
09:29 21.7 °C 20.5 °C 1015.0 hPa SO 2.9 km/h 8 km/h 93% 0.0 mm
09:34 21.8 °C 20.7 °C 1015.0 hPa SE 3.2 km/h 11.1 km/h 93% 0.0 mm
09:39 21.9 °C 20.6 °C 1015.0 hPa SE 3.4 km/h 11.3 km/h 92.1% 0.0 mm
09:44 22 °C 20.7 °C 1015.0 hPa Sur 5 km/h 9.7 km/h 92% 0.0 mm
09:49 22.1 °C 20.8 °C 1015.5 hPa OSO 5 km/h 8.4 km/h 92% 0.0 mm
09:54 22.2 °C 20.7 °C 1015.5 hPa OSO 4.7 km/h 8 km/h 91.2% 0.0 mm
09:59 22.3 °C 20.8 °C 1015.5 hPa Oeste 4.7 km/h 8.4 km/h 91% 0.0 mm
10:04 22.6 °C 21 °C 1015.5 hPa Oeste 4.7 km/h 8 km/h 90.9% 0.0 mm
10:09 22.8 °C 21.1 °C 1015.4 hPa Este 4.6 km/h 8.4 km/h 89.7% 0.0 mm
10:14 23.2 °C 21.1 °C 1015.4 hPa SSE 4.7 km/h 8 km/h 88.4% 0.0 mm
10:19 23.4 °C 21.1 °C 1016.0 hPa OSO 4.7 km/h 13.7 km/h 86.8% 0.0 mm
10:24 23.4 °C 20.9 °C 1016.0 hPa OSO 5 km/h 14.5 km/h 85.7% 0.0 mm
10:29 23.5 °C 20.9 °C 1016.0 hPa OSO 5.4 km/h 16.7 km/h 85% 0.0 mm
10:34 23.6 °C 21 °C 1016.2 hPa OSO 10 km/h 16.7 km/h 85.3% 0.0 mm
10:39 23.7 °C 21.1 °C 1016.2 hPa SO 9.8 km/h 16.1 km/h 85.4% 0.0 mm
10:44 23.8 °C 21.2 °C 1016.2 hPa SO 8.4 km/h 12.2 km/h 85.3% 0.0 mm
10:49 23.8 °C 21.1 °C 1016.2 hPa OSO 8.2 km/h 13.7 km/h 85% 0.0 mm
10:54 23.8 °C 21.1 °C 1016.1 hPa OSO 6.5 km/h 14.5 km/h 85% 0.0 mm
10:59 23.9 °C 21.3 °C 1016.0 hPa SO 6.5 km/h 12.9 km/h 85% 0.0 mm
11:04 24.2 °C 21.3 °C 1016.2 hPa OSO 6.9 km/h 13 km/h 84% 0.0 mm
11:09 24.3 °C 21.2 °C 1016.2 hPa ONO 7 km/h 13.7 km/h 82.7% 0.0 mm
11:14 24.3 °C 20.9 °C 1016.2 hPa ONO 7.6 km/h 14.5 km/h 81.5% 0.0 mm
11:19 24.2 °C 20.8 °C 1016.3 hPa Oeste 7.6 km/h 12.9 km/h 81.5% 0.0 mm
11:24 24.3 °C 21 °C 1016.3 hPa SO 7.6 km/h 13 km/h 81.9% 0.0 mm
11:29 24.4 °C 20.9 °C 1016.3 hPa SSO 7.5 km/h 13 km/h 81% 0.0 mm
11:34 24.6 °C 21 °C 1016.3 hPa Sur 6.9 km/h 13 km/h 80.5% 0.0 mm
11:39 24.8 °C 21.2 °C 1016.3 hPa SSE 6.9 km/h 11.3 km/h 80% 0.0 mm
11:44 25.1 °C 21.2 °C 1016.3 hPa Sur 6.5 km/h 13.7 km/h 79.1% 0.0 mm
11:49 25.2 °C 21.2 °C 1016.3 hPa SSE 6.7 km/h 17.2 km/h 78.6% 0.0 mm
11:54 25.2 °C 21.1 °C 1016.3 hPa SE 8.7 km/h 17.7 km/h 78% 0.0 mm
11:59 25.3 °C 21.1 °C 1016.2 hPa SSE 8.7 km/h 16.1 km/h 77.5% 0.0 mm
12:04 25.3 °C 21 °C 1016.2 hPa OSO 8.7 km/h 14.5 km/h 77.2% 0.0 mm
12:09 25.4 °C 20.8 °C 1015.9 hPa NNO 8.3 km/h 11.1 km/h 76% 0.0 mm
12:14 25.4 °C 20.8 °C 1015.6 hPa NNE 3.9 km/h 16.7 km/h 76% 0.0 mm
12:19 25.3 °C 20.8 °C 1015.6 hPa NE 4.2 km/h 16.1 km/h 76% 0.0 mm
12:24 25.3 °C 20.8 °C 1015.3 hPa NE 7.5 km/h 11.3 km/h 76% 0.0 mm
12:29 25.4 °C 20.7 °C 1015.1 hPa NNE 7.1 km/h 7.4 km/h 75.4% 0.0 mm
12:34 25.4 °C 20.6 °C 1015.1 hPa Este 2.9 km/h 13 km/h 74.4% 0.0 mm
12:39 25.5 °C 20.7 °C 1015.0 hPa Este 3.3 km/h 13 km/h 74.8% 0.0 mm
12:44 25.5 °C 20.6 °C 1015.0 hPa ENE 7.5 km/h 13.7 km/h 74.6% 0.0 mm
12:49 25.6 °C 20.6 °C 1015.6 hPa SSE 7.5 km/h 14.5 km/h 74.1% 0.0 mm
12:54 25.7 °C 20.6 °C 1015.6 hPa SSO 6.5 km/h 15.6 km/h 73.5% 0.0 mm
12:59 25.7 °C 20.5 °C 1015.6 hPa SO 6.8 km/h 17.2 km/h 73.2% 0.0 mm
13:04 25.8 °C 20.7 °C 1016.2 hPa OSO 9.5 km/h 17.7 km/h 73.4% 0.0 mm
13:09 25.8 °C 20.6 °C 1016.2 hPa OSO 9.3 km/h 14.5 km/h 72.7% 0.0 mm
13:14 25.9 °C 20.2 °C 1016.2 hPa Oeste 7.6 km/h 14.5 km/h 71.1% 0.0 mm
13:19 25.9 °C 20.4 °C 1016.2 hPa NNO 7.5 km/h 11.9 km/h 71.5% 0.0 mm
13:24 25.9 °C 20.5 °C 1015.8 hPa NE 6.9 km/h 14.8 km/h 72% 0.0 mm
13:29 25.8 °C 20.5 °C 1015.4 hPa NE 7.2 km/h 14.8 km/h 72.5% 0.0 mm
13:34 25.8 °C 20.8 °C 1015.4 hPa NE 9.5 km/h 14.5 km/h 73.6% 0.0 mm
13:39 25.9 °C 20.9 °C 1015.4 hPa NNE 9.2 km/h 11.3 km/h 74% 0.0 mm
13:44 25.9 °C 20.9 °C 1015.4 hPa OSO 4.7 km/h 10 km/h 74.1% 0.0 mm
13:49 25.9 °C 20.9 °C 1015.5 hPa NO 4.7 km/h 9.7 km/h 74.1% 0.0 mm
13:54 26 °C 21 °C 1015.5 hPa Oeste 5 km/h 11.1 km/h 74.1% 0.0 mm
13:59 26 °C 20.7 °C 1015.5 hPa SE 4.8 km/h 11.3 km/h 72.9% 0.0 mm
14:04 26 °C 20.8 °C 1015.5 hPa NNE 3.9 km/h 12.2 km/h 73% 0.0 mm
14:09 25.9 °C 20.9 °C 1015.1 hPa NE 4.4 km/h 26.2 km/h 73.7% 0.0 mm
14:14 25.7 °C 20.9 °C 1014.7 hPa NE 10 km/h 31.7 km/h 74.9% 0.0 mm
14:19 25.6 °C 21.1 °C 1014.7 hPa NE 10.5 km/h 32.2 km/h 76% 0.0 mm
14:24 25.7 °C 21.2 °C 1013.6 hPa NE 14.8 km/h 18.5 km/h 76% 0.0 mm
14:29 25.8 °C 21.2 °C 1012.6 hPa ESE 14.3 km/h 19.3 km/h 76.1% 0.0 mm
14:34 25.9 °C 21.4 °C 1013.2 hPa ENE 10 km/h 14.5 km/h 76.1% 0.0 mm
14:39 26.1 °C 21.5 °C 1013.2 hPa NNE 9.6 km/h 13 km/h 76% 0.0 mm
14:44 26.1 °C 21.6 °C 1013.2 hPa NO 5.8 km/h 13 km/h 76% 0.0 mm
14:49 26.2 °C 21.6 °C 1014.5 hPa OSO 6 km/h 16.7 km/h 76% 0.0 mm
14:54 26.3 °C 21.4 °C 1014.5 hPa SSO 8.4 km/h 16.1 km/h 74.7% 0.0 mm
14:59 26.3 °C 21.1 °C 1014.5 hPa SSE 8.1 km/h 11.3 km/h 73.3% 0.0 mm
15:04 26.4 °C 20.6 °C 1014.5 hPa ESE 6.5 km/h 14.8 km/h 70.7% 0.0 mm
15:09 26.4 °C 20.4 °C 1013.8 hPa NE 6.5 km/h 14.5 km/h 69.5% 0.0 mm
15:14 26.4 °C 20.4 °C 1013.2 hPa NE 6.5 km/h 8.7 km/h 69.6% 0.0 mm
15:19 26.4 °C 21.2 °C 1013.2 hPa NE 6.5 km/h 12.2 km/h 73.1% 0.0 mm
15:24 26.4 °C 21.3 °C 1012.9 hPa NNO 6.5 km/h 12.9 km/h 73.3% 0.0 mm
15:29 26.7 °C 21 °C 1012.7 hPa Oeste 6.4 km/h 15.6 km/h 71.4% 0.0 mm
15:34 26.8 °C 21.1 °C 1013.3 hPa ONO 5.8 km/h 16.1 km/h 71% 0.0 mm
15:39 26.9 °C 21.2 °C 1013.3 hPa ONO 5.9 km/h 14.8 km/h 71% 0.0 mm
15:44 27 °C 21.2 °C 1013.3 hPa NNO 6.9 km/h 14.5 km/h 70.7% 0.0 mm
15:49 27.2 °C 21.1 °C 1013.4 hPa North 6.8 km/h 11.1 km/h 69.6% 0.0 mm
15:54 27.3 °C 20.9 °C 1013.4 hPa ENE 5 km/h 11.3 km/h 68.5% 0.0 mm
15:59 27.3 °C 21 °C 1013.4 hPa NE 5 km/h 11.3 km/h 68.8% 0.0 mm
16:04 27.4 °C 20.9 °C 1013.4 hPa Este 5 km/h 16.7 km/h 67.9% 0.0 mm
16:09 27.4 °C 20.8 °C 1013.4 hPa ESE 5.1 km/h 16.7 km/h 67% 0.0 mm
16:14 27.5 °C 20.7 °C 1013.4 hPa SSE 6.9 km/h 14.8 km/h 66.6% 0.0 mm
16:19 27.6 °C 20.7 °C 1013.4 hPa ESE 6.9 km/h 14.5 km/h 65.9% 0.0 mm
16:24 27.8 °C 20.8 °C 1013.4 hPa SSE 6.5 km/h 11.3 km/h 65.7% 0.0 mm
16:29 28 °C 20.4 °C 1013.4 hPa SE 6.3 km/h 11.1 km/h 63.3% 0.0 mm
16:34 28.1 °C 20.3 °C 1013.4 hPa ONO 5 km/h 11.3 km/h 62.7% 0.0 mm
16:39 28.3 °C 20.6 °C 1013.3 hPa NNO 4.9 km/h 9.7 km/h 63% 0.0 mm
16:44 28.5 °C 20.6 °C 1013.2 hPa ENE 3.9 km/h 11.9 km/h 62.1% 0.0 mm
16:49 28.5 °C 20.6 °C 1013.2 hPa ENE 4.1 km/h 13 km/h 62.5% 0.0 mm
16:54 28.3 °C 20.5 °C 1013.2 hPa ENE 6.4 km/h 12.9 km/h 62.8% 0.0 mm
16:59 28.3 °C 20.5 °C 1013.2 hPa NE 6.6 km/h 14.8 km/h 62.5% 0.0 mm
17:04 28.3 °C 20.6 °C 1013.2 hPa NE 7.6 km/h 16.7 km/h 63.3% 0.0 mm
17:09 28.2 °C 20.7 °C 1013.1 hPa NE 7.8 km/h 20.4 km/h 64.2% 0.0 mm
17:14 28 °C 20.7 °C 1013.0 hPa Este 10.3 km/h 20.9 km/h 64.6% 0.0 mm
17:19 28.1 °C 20.7 °C 1013.0 hPa NE 10.2 km/h 18.5 km/h 64.3% 0.0 mm
17:24 28 °C 20.8 °C 1012.9 hPa NE 9.5 km/h 22.2 km/h 65% 0.0 mm
17:29 27.8 °C 20.8 °C 1012.9 hPa NE 9.8 km/h 22.5 km/h 65.7% 0.0 mm
17:34 27.8 °C 20.8 °C 1012.9 hPa ENE 12.2 km/h 20.9 km/h 66% 0.0 mm
17:39 27.6 °C 20.9 °C 1012.9 hPa NE 12.2 km/h 20.9 km/h 66.7% 0.0 mm
17:44 27.6 °C 20.8 °C 1012.9 hPa NE 12.2 km/h 19.3 km/h 66.6% 0.0 mm
17:49 27.5 °C 20.6 °C 1012.9 hPa NE 12.1 km/h 17.7 km/h 66% 0.0 mm
17:54 27.4 °C 20.6 °C 1012.8 hPa NE 10 km/h 16.1 km/h 66.4% 0.0 mm
17:59 27.4 °C 20.7 °C 1012.8 hPa NE 9.8 km/h 16.7 km/h 67% 0.0 mm
18:04 27.4 °C 20.7 °C 1012.8 hPa ENE 8.4 km/h 16.1 km/h 67% 0.0 mm
18:09 27.4 °C 20.7 °C 1012.7 hPa ENE 8.3 km/h 13 km/h 67% 0.0 mm
18:14 27.3 °C 20.6 °C 1012.6 hPa NE 7.6 km/h 13 km/h 66.9% 0.0 mm
18:19 27.3 °C 20.7 °C 1012.6 hPa ENE 7.6 km/h 13 km/h 67.2% 0.0 mm
18:24 27.2 °C 20.7 °C 1012.6 hPa NE 7.6 km/h 19 km/h 67.4% 0.0 mm
18:29 27.1 °C 20.5 °C 1012.5 hPa NE 7.9 km/h 20.9 km/h 67% 0.0 mm
18:34 27.1 °C 20.8 °C 1012.5 hPa NNE 11.9 km/h 22.5 km/h 68.3% 0.0 mm
18:39 27 °C 20.8 °C 1012.4 hPa NE 11.9 km/h 22.5 km/h 68.9% 0.0 mm
18:44 26.9 °C 20.7 °C 1012.3 hPa NE 11.9 km/h 20.9 km/h 69.1% 0.0 mm
18:49 26.8 °C 20.9 °C 1012.4 hPa NE 12 km/h 20.9 km/h 70.2% 0.0 mm
18:54 26.7 °C 21 °C 1012.4 hPa NE 13 km/h 20.9 km/h 71% 0.0 mm
18:59 26.6 °C 20.9 °C 1012.4 hPa NE 12.9 km/h 20.9 km/h 71.1% 0.0 mm
19:04 26.5 °C 21 °C 1012.8 hPa NE 11.9 km/h 20.4 km/h 72.1% 0.0 mm
19:09 26.4 °C 21.2 °C 1012.8 hPa NNE 11.8 km/h 20.9 km/h 73% 0.0 mm
19:14 26.3 °C 21.2 °C 1012.8 hPa NNE 10 km/h 14.8 km/h 73.7% 0.0 mm
19:19 26.2 °C 21.2 °C 1013.0 hPa NNE 9.9 km/h 14.8 km/h 74% 0.0 mm
19:24 26 °C 21.3 °C 1013.0 hPa NNE 8.7 km/h 19 km/h 75% 0.0 mm
19:29 25.9 °C 21.3 °C 1013.0 hPa NNE 8.7 km/h 19.3 km/h 75.8% 0.0 mm
19:34 25.8 °C 21.2 °C 1013.1 hPa NE 8.4 km/h 12.9 km/h 76% 0.0 mm
19:39 25.7 °C 21.2 °C 1013.1 hPa NE 8.2 km/h 11.3 km/h 76% 0.0 mm
19:44 25.7 °C 21.1 °C 1013.1 hPa NE 6.9 km/h 14.8 km/h 76% 0.0 mm
19:49 25.6 °C 21.1 °C 1013.1 hPa ENE 6.9 km/h 14.5 km/h 76.2% 0.0 mm
19:54 25.6 °C 21.2 °C 1013.0 hPa Este 6.9 km/h 13 km/h 77% 0.0 mm
19:59 25.4 °C 21.2 °C 1013.0 hPa Este 7 km/h 13.7 km/h 77.6% 0.0 mm
20:04 25.3 °C 21.1 °C 1013.0 hPa NE 7.6 km/h 14.5 km/h 78% 0.0 mm
20:09 25.1 °C 21.1 °C 1012.9 hPa ENE 7.3 km/h 10 km/h 78.4% 0.0 mm
20:14 25.1 °C 21.2 °C 1012.9 hPa Este 5.8 km/h 9.7 km/h 79% 0.0 mm
20:19 25.1 °C 21.2 °C 1012.9 hPa ESE 5.4 km/h 8 km/h 79% 0.0 mm
20:24 25 °C 21.2 °C 1012.9 hPa ESE 3.9 km/h 8 km/h 79% 0.0 mm
20:29 25 °C 21.1 °C 1012.9 hPa NE 3.7 km/h 7.4 km/h 79% 0.0 mm
20:34 25 °C 21.1 °C 1013.2 hPa NE 2.9 km/h 8 km/h 79% 0.0 mm
20:39 25 °C 21.1 °C 1013.2 hPa NE 2.8 km/h 5.6 km/h 79% 0.0 mm
20:44 24.9 °C 21 °C 1013.2 hPa NE 2.2 km/h 7.4 km/h 79% 0.0 mm
20:49 24.8 °C 21 °C 1013.2 hPa NE 2.7 km/h 9.5 km/h 79.3% 0.0 mm
20:54 24.8 °C 21.1 °C 1013.2 hPa NE 4.7 km/h 10 km/h 80% 0.0 mm
20:59 24.7 °C 21 °C 1013.2 hPa ENE 4.9 km/h 9.7 km/h 80.1% 0.0 mm
21:04 24.6 °C 21.1 °C 1013.5 hPa ENE 5.8 km/h 9.7 km/h 81% 0.0 mm
21:09 24.5 °C 21 °C 1013.5 hPa NE 5.6 km/h 9.7 km/h 81% 0.0 mm
21:14 24.4 °C 20.9 °C 1013.5 hPa NE 4.7 km/h 6.4 km/h 81% 0.0 mm
21:19 24.4 °C 20.9 °C 1013.7 hPa NE 4.3 km/h 8 km/h 81% 0.0 mm
21:24 24.4 °C 21 °C 1013.7 hPa NE 2.9 km/h 9.3 km/h 81.2% 0.0 mm
21:29 24.2 °C 21 °C 1013.7 hPa NE 3.5 km/h 9.7 km/h 82% 0.0 mm
21:34 24.1 °C 21.1 °C 1013.8 hPa NE 6.4 km/h 9.7 km/h 83% 0.0 mm
21:39 24 °C 21 °C 1013.8 hPa NE 6.2 km/h 8 km/h 83% 0.0 mm
21:44 24 °C 21 °C 1013.8 hPa NE 5 km/h 10 km/h 83% 0.0 mm
21:49 24.1 °C 21 °C 1013.8 hPa ENE 4.9 km/h 9.7 km/h 83% 0.0 mm
21:54 24.1 °C 21 °C 1013.7 hPa ENE 4.7 km/h 8.4 km/h 83% 0.0 mm
21:59 24.1 °C 21 °C 1013.7 hPa NE 4.7 km/h 9.3 km/h 83% 0.0 mm
22:04 24 °C 20.9 °C 1013.8 hPa NNE 4.7 km/h 9.7 km/h 83% 0.0 mm
22:09 23.9 °C 20.8 °C 1013.8 hPa NE 4.7 km/h 8.4 km/h 83% 0.0 mm
22:14 23.8 °C 20.9 °C 1013.8 hPa NNO 4.7 km/h 9.5 km/h 83.8% 0.0 mm
22:19 23.7 °C 20.9 °C 1014.0 hPa North 4.7 km/h 9.7 km/h 84.8% 0.0 mm
22:24 23.4 °C 20.9 °C 1014.0 hPa North 5 km/h 9.5 km/h 85.5% 0.0 mm
22:29 23.3 °C 20.9 °C 1014.0 hPa North 5 km/h 9.7 km/h 86.2% 0.0 mm
22:34 23.2 °C 20.9 °C 1014.0 hPa North 5 km/h 8 km/h 87% 0.0 mm
22:39 23.2 °C 20.9 °C 1013.8 hPa NNE 4.8 km/h 8 km/h 87% 0.0 mm
22:44 23.1 °C 20.9 °C 1013.8 hPa NNE 3.9 km/h 8 km/h 87.1% 0.0 mm
22:49 23.1 °C 21 °C 1013.9 hPa NNE 4 km/h 9.5 km/h 88% 0.0 mm
22:54 23 °C 20.9 °C 1013.9 hPa NNE 5 km/h 9.7 km/h 88% 0.0 mm
22:59 22.9 °C 20.8 °C 1013.9 hPa NNE 5.2 km/h 9.7 km/h 88% 0.0 mm
23:04 22.9 °C 21 °C 1014.0 hPa NNE 5.8 km/h 10 km/h 89% 0.0 mm
23:09 22.9 °C 21 °C 1014.0 hPa NE 5.8 km/h 9.7 km/h 89% 0.0 mm
23:14 22.9 °C 21 °C 1014.0 hPa NE 5.8 km/h 9.7 km/h 89% 0.0 mm
23:19 22.9 °C 21 °C 1014.1 hPa NE 5.9 km/h 9.7 km/h 89% 0.0 mm
23:24 22.9 °C 21 °C 1014.1 hPa NE 6.4 km/h 9.7 km/h 89% 0.0 mm
23:29 22.9 °C 21 °C 1014.1 hPa NE 6.3 km/h 9.7 km/h 89% 0.0 mm
23:34 22.9 °C 21 °C 1014.1 hPa NE 5.8 km/h 8 km/h 89% 0.0 mm
23:39 22.9 °C 21 °C 1014.0 hPa NE 5.3 km/h 8 km/h 89% 0.0 mm
23:44 22.9 °C 21 °C 1014.0 hPa NE 2.9 km/h 7.4 km/h 89% 0.0 mm
23:49 22.9 °C 21 °C 1014.0 hPa NE 3 km/h 8 km/h 88.8% 0.0 mm
23:54 22.9 °C 20.8 °C 1014.0 hPa NE 3.2 km/h 7.4 km/h 88% 0.0 mm
23:59 22.9 °C 20.8 °C 1014.0 hPa Este 3.2 km/h 8 km/h 88% 0.0 mm
Murcia-Puente Tocinos, España
Compliments of Weather Underground - 2.75 mb

La estación de MeteoMurcia.com, publica sus datos en los siguientes proyectos:

Weather Underground PWS IMURCIAP2 Meteoclimatic www.awekas.at

W3Counter
Web Analytics